Time;durP1;ratioP1;P1;durP2;ratioP2;P2;SDS_P1;SDS_P2;PMS_P1;PMS_P2;Temp;Humidity;BMP_temperature;BMP_pressure;BME280_temperature;BME280_humidity;BME280_pressure;Samples;Min_cycle;Max_cycle;Signal;HPM_P1;HPM_P2
2021/11/17 02:27:02;;;;;;;46.17;27.88;;;;;;;8.95;97.99;98653.31;5070162;28;20402;-61
2021/11/17 02:29:46;;;;;;;51.80;29.00;;;;;;;9.01;97.46;98652.78;5073255;28;20036;-63
2021/11/17 02:32:46;;;;;;;50.63;29.00;;;;;;;8.73;98.10;98615.47;5075606;28;20024;-60
2021/11/17 02:35:26;;;;;;;52.28;30.08;;;;;;;8.88;98.09;98653.03;5054132;28;20500;-60
2021/11/17 02:38:11;;;;;;;50.22;29.38;;;;;;;8.93;97.64;98650.03;5071414;28;20033;-59
2021/11/17 02:41:07;;;;;;;48.17;28.88;;;;;;;8.57;97.86;98595.22;5076956;28;20028;-60
2021/11/17 02:43:42;;;;;;;47.42;29.52;;;;;;;8.90;97.65;98650.31;5053755;28;20112;-60
2021/11/17 02:46:20;;;;;;;50.35;28.70;;;;;;;8.72;98.38;98647.53;5075255;28;20035;-62
2021/11/17 02:49:08;;;;;;;54.97;30.30;;;;;;;8.90;98.03;98647.72;5061091;28;20024;-62
2021/11/17 02:51:58;;;;;;;49.28;28.80;;;;;;;8.92;97.50;98649.19;5066493;28;20099;-62
2021/11/17 02:54:42;;;;;;;51.92;29.77;;;;;;;8.74;98.63;98645.63;5074295;28;20051;-61
2021/11/17 02:57:20;;;;;;;48.55;29.65;;;;;;;8.39;98.62;98605.38;5069830;28;20035;-62
2021/11/17 03:00:03;;;;;;;51.35;30.02;;;;;;;8.35;98.45;98586.66;5073899;28;20581;-63
2021/11/17 03:02:49;;;;;;;51.80;30.05;;;;;;;8.47;97.82;98603.00;5063981;28;20501;-60
2021/11/17 03:05:43;;;;;;;53.97;30.10;;;;;;;8.80;98.06;98650.28;5066809;28;20020;-60
2021/11/17 03:08:38;;;;;;;49.75;28.90;;;;;;;8.74;97.71;98643.03;5070537;28;20028;-60
2021/11/17 03:11:03;;;;;;;52.25;29.67;;;;;;;8.68;98.42;98644.38;5083235;27;21449;-61
2021/11/17 03:13:44;;;;;;;54.80;29.63;;;;;;;8.67;98.36;98634.97;5074969;28;20032;-62
2021/11/17 03:16:22;;;;;;;55.00;30.08;;;;;;;8.67;97.95;98640.16;5073815;28;20031;-64
2021/11/17 03:18:59;;;;;;;53.67;30.27;;;;;;;8.73;98.26;98644.00;5066779;28;20086;-61
2021/11/17 03:21:48;;;;;;;51.35;28.80;;;;;;;8.54;98.05;98624.00;5072446;28;20036;-61
2021/11/17 03:24:44;;;;;;;54.10;29.40;;;;;;;8.39;98.47;98600.19;5074966;28;21554;-61
2021/11/17 03:27:13;;;;;;;54.95;30.67;;;;;;;8.62;98.90;98644.91;5062497;28;20028;-61
2021/11/17 03:29:41;;;;;;;55.67;31.00;;;;;;;8.77;98.68;98656.53;5074242;28;20043;-61
2021/11/17 03:32:34;;;;;;;51.95;30.30;;;;;;;8.51;99.11;98601.75;5078524;28;20039;-60
2021/11/17 03:35:18;;;;;;;53.55;30.08;;;;;;;8.85;98.97;98638.56;5066516;28;20028;-61
2021/11/17 03:38:08;;;;;;;55.40;30.38;;;;;;;8.51;99.30;98588.81;5073264;28;20510;-61
2021/11/17 03:40:33;;;;;;;55.95;31.08;;;;;;;8.83;98.72;98643.06;5070645;28;20286;-62
2021/11/17 03:43:18;;;;;;;59.80;32.63;;;;;;;8.78;99.13;98637.44;5070232;28;20387;-62
2021/11/17 03:46:20;;;;;;;56.65;29.95;;;;;;;8.81;99.51;98651.91;5077015;28;20111;-59
2021/11/17 03:48:47;;;;;;;51.08;30.15;;;;;;;8.85;99.59;98645.50;5047447;28;20060;-62
2021/11/17 03:51:27;;;;;;;55.78;31.98;;;;;;;8.79;99.07;98656.41;5069608;28;20058;-64
2021/11/17 03:54:47;;;;;;;52.80;29.92;;;;;;;8.84;99.73;98646.47;5072009;28;20616;-62
2021/11/17 03:57:28;;;;;;;53.10;31.20;;;;;;;8.57;98.08;98595.22;5027874;28;20032;-63
2021/11/17 04:00:18;;;;;;;60.47;32.90;;;;;;;8.76;98.79;98644.53;5065324;28;20074;-62
2021/11/17 04:02:49;;;;;;;54.15;30.25;;;;;;;8.54;99.23;98595.50;5072305;28;20068;-62
2021/11/17 04:05:40;;;;;;;53.88;31.42;;;;;;;8.89;99.44;98649.50;5074736;28;20279;-62
2021/11/17 04:08:14;;;;;;;52.83;30.48;;;;;;;8.95;99.82;98650.72;5073105;28;20021;-62
2021/11/17 04:11:00;;;;;;;57.92;31.58;;;;;;;8.94;100.00;98647.28;5070825;28;20036;-61
2021/11/17 04:13:28;;;;;;;56.67;31.45;;;;;;;9.01;99.21;98650.19;5067394;28;20108;-64
2021/11/17 04:16:15;;;;;;;57.40;31.17;;;;;;;9.01;99.09;98651.00;5074148;28;20090;-62
2021/11/17 04:18:55;;;;;;;54.10;30.15;;;;;;;8.64;98.80;98602.34;5072443;28;20103;-61
2021/11/17 04:21:33;;;;;;;56.13;32.55;;;;;;;8.68;99.09;98607.28;5073273;28;20032;-61
2021/11/17 04:24:24;;;;;;;55.13;30.38;;;;;;;8.89;99.16;98643.47;5072078;28;20078;-63
2021/11/17 04:27:05;;;;;;;54.53;29.55;;;;;;;8.94;99.39;98644.69;5070630;28;20069;-63
2021/11/17 04:29:53;;;;;;;57.75;31.23;;;;;;;8.97;99.66;98652.22;5070343;28;20053;-64
2021/11/17 04:32:43;;;;;;;55.40;31.70;;;;;;;8.91;99.81;98647.59;5075100;28;20793;-61
2021/11/17 04:35:43;;;;;;;52.80;29.63;;;;;;;8.85;98.76;98606.59;5072301;28;20032;-62
2021/11/17 04:38:27;;;;;;;52.80;30.67;;;;;;;8.98;98.98;98640.91;5078332;28;20039;-62
2021/11/17 04:41:04;;;;;;;52.22;30.20;;;;;;;9.02;98.28;98641.47;5077725;28;20024;-62
2021/11/17 04:44:07;;;;;;;50.92;29.63;;;;;;;9.02;99.35;98637.09;5078463;28;20031;-61
2021/11/17 04:46:42;;;;;;;51.72;30.15;;;;;;;8.95;98.93;98635.16;5073859;28;20342;-62
2021/11/17 04:49:10;;;;;;;54.10;30.95;;;;;;;8.76;99.22;98620.38;5066542;28;20051;-62
2021/11/17 04:51:54;;;;;;;55.63;31.38;;;;;;;8.69;99.12;98596.78;5077713;28;20028;-61
2021/11/17 04:54:22;;;;;;;51.92;29.85;;;;;;;8.95;99.47;98642.94;5067291;28;20041;-60
2021/11/17 04:57:00;;;;;;;54.72;30.85;;;;;;;8.89;100.00;98639.13;5078537;28;20024;-59
2021/11/17 04:59:55;;;;;;;54.42;32.00;;;;;;;8.84;100.00;98649.88;5066085;28;20028;-60
2021/11/17 05:02:48;;;;;;;55.15;32.63;;;;;;;8.83;100.00;98650.00;5074941;28;20028;-60
2021/11/17 05:05:29;;;;;;;58.80;32.00;;;;;;;8.89;100.00;98641.72;5066107;28;20033;-61
2021/11/17 05:08:13;;;;;;;57.78;32.83;;;;;;;8.90;100.00;98645.94;5072543;28;20284;-61
2021/11/17 05:10:53;;;;;;;56.95;33.08;;;;;;;8.94;100.00;98651.66;5090622;28;20169;-60
2021/11/17 05:13:22;;;;;;;57.47;31.35;;;;;;;8.96;99.64;98642.81;5073010;28;20062;-60
2021/11/17 05:16:06;;;;;;;55.38;32.08;;;;;;;9.01;99.34;98650.19;5074383;28;20115;-61
2021/11/17 05:18:41;;;;;;;56.60;30.75;;;;;;;8.77;99.43;98614.25;5071400;28;20064;-59
2021/11/17 05:21:22;;;;;;;54.15;31.20;;;;;;;8.91;100.00;98654.53;5075016;28;20040;-60
2021/11/17 05:24:15;;;;;;;56.20;31.55;;;;;;;8.88;99.99;98655.63;5069421;28;20036;-61
2021/11/17 05:27:03;;;;;;;55.72;31.42;;;;;;;8.62;100.00;98619.81;5068884;28;20035;-60
2021/11/17 05:29:50;;;;;;;51.97;29.60;;;;;;;9.03;99.96;98664.69;5068741;28;20090;-60
2021/11/17 05:32:47;;;;;;;55.45;31.40;;;;;;;8.71;99.67;98609.59;5086172;28;20035;-60
2021/11/17 05:35:38;;;;;;;50.20;29.73;;;;;;;8.71;99.58;98610.41;5055228;28;20035;-60
2021/11/17 05:38:19;;;;;;;52.63;30.23;;;;;;;8.98;99.91;98664.25;5048467;28;20024;-60
2021/11/17 05:40:56;;;;;;;52.13;29.98;;;;;;;8.75;99.90;98614.38;5069065;28;20044;-63
2021/11/17 05:43:49;;;;;;;53.78;30.38;;;;;;;8.74;99.39;98610.13;5063907;28;20028;-61
2021/11/17 05:46:14;;;;;;;54.70;30.40;;;;;;;9.04;99.56;98657.72;5059602;28;20037;-61
2021/11/17 05:49:04;;;;;;;49.95;29.45;;;;;;;9.02;99.92;98657.03;5063853;28;20035;-60
2021/11/17 05:51:42;;;;;;;53.67;30.73;;;;;;;8.49;100.00;98574.31;5063632;28;20048;-60
2021/11/17 05:54:41;;;;;;;54.03;32.08;;;;;;;8.95;100.00;98651.53;5062838;28;20025;-61
2021/11/17 05:57:30;;;;;;;51.28;30.17;;;;;;;8.69;100.00;98611.47;5062392;28;20479;-61
2021/11/17 06:00:21;;;;;;;55.45;30.98;;;;;;;9.01;100.00;98660.56;5069992;28;20028;-61
2021/11/17 06:03:02;;;;;;;54.28;31.30;;;;;;;8.90;100.00;98658.91;5075605;28;20078;-61
2021/11/17 06:05:27;;;;;;;53.25;31.42;;;;;;;9.00;100.00;98672.72;5063375;28;20145;-61
2021/11/17 06:07:52;;;;;;;57.63;32.67;;;;;;;9.02;100.00;98675.19;5075205;28;20054;-61
2021/11/17 06:10:21;;;;;;;50.47;30.52;;;;;;;9.03;100.00;98669.03;5077243;28;20402;-61
2021/11/17 06:12:47;;;;;;;55.60;30.92;;;;;;;8.82;100.00;98645.78;5067851;28;20021;-61
2021/11/17 06:15:15;;;;;;;51.60;30.35;;;;;;;8.98;100.00;98677.22;5068716;28;20475;-60
2021/11/17 06:17:44;;;;;;;57.70;31.73;;;;;;;9.07;100.00;98687.72;5067590;28;20035;-61
2021/11/17 06:20:10;;;;;;;55.73;31.20;;;;;;;9.06;100.00;98678.31;5066740;28;20020;-61
2021/11/17 06:22:36;;;;;;;53.85;29.67;;;;;;;9.08;100.00;98677.22;5063813;28;20546;-61
2021/11/17 06:25:07;;;;;;;51.88;30.10;;;;;;;9.09;99.91;98668.50;5062277;28;20032;-60
2021/11/17 06:27:34;;;;;;;53.10;31.30;;;;;;;8.83;99.72;98634.44;5099861;27;20129;-61
2021/11/17 06:29:59;;;;;;;54.88;30.88;;;;;;;9.13;100.00;98690.63;5065508;28;20431;-61
2021/11/17 06:32:27;;;;;;;53.55;30.10;;;;;;;9.17;99.53;98694.59;5065645;28;20036;-60
2021/11/17 06:34:55;;;;;;;58.20;30.48;;;;;;;8.92;99.69;98666.53;5047846;28;20028;-60
2021/11/17 06:37:22;;;;;;;55.58;31.20;;;;;;;8.92;100.00;98688.09;5070378;28;20025;-61
2021/11/17 06:39:53;;;;;;;57.88;30.65;;;;;;;8.99;100.00;98689.22;5051822;28;20579;-61
2021/11/17 06:42:30;;;;;;;56.45;30.98;;;;;;;9.08;100.00;98699.75;5063225;28;20305;-61
2021/11/17 06:44:56;;;;;;;52.50;30.17;;;;;;;9.10;100.00;98703.84;5061651;28;20032;-60
2021/11/17 06:47:22;;;;;;;51.75;29.50;;;;;;;9.13;100.00;98707.97;5061632;28;22226;-61
2021/11/17 06:49:47;;;;;;;56.90;30.58;;;;;;;9.08;100.00;98702.34;5071383;28;20032;-61
2021/11/17 06:52:14;;;;;;;56.92;31.23;;;;;;;8.82;100.00;98672.53;5077192;28;20110;-61
2021/11/17 06:54:39;;;;;;;58.20;31.90;;;;;;;9.08;100.00;98720.50;5065630;28;20071;-61
2021/11/17 06:57:05;;;;;;;53.53;31.10;;;;;;;9.17;100.00;98722.31;5062847;28;20099;-61
2021/11/17 06:59:31;;;;;;;54.38;31.45;;;;;;;9.11;100.00;98730.59;5072320;28;20068;-61
2021/11/17 07:02:04;;;;;;;57.30;32.05;;;;;;;9.04;100.00;98728.56;5066009;28;20420;-60
2021/11/17 07:04:29;;;;;;;55.30;32.03;;;;;;;9.03;100.00;98732.13;5069541;28;20450;-60
2021/11/17 07:06:55;;;;;;;57.38;31.13;;;;;;;9.03;100.00;98726.94;5063203;28;20036;-61
2021/11/17 07:09:20;;;;;;;56.28;31.42;;;;;;;9.06;100.00;98732.81;5068958;28;20035;-60
2021/11/17 07:11:45;;;;;;;59.22;32.00;;;;;;;9.06;100.00;98730.22;5077639;28;20035;-60
2021/11/17 07:14:11;;;;;;;59.38;31.20;;;;;;;9.13;100.00;98737.31;5059127;28;20426;-61
2021/11/17 07:16:38;;;;;;;58.28;32.65;;;;;;;9.21;100.00;98741.84;5076019;28;20027;-61
2021/11/17 07:19:06;;;;;;;58.58;32.22;;;;;;;9.16;100.00;98737.06;5066335;28;20693;-60
2021/11/17 07:21:32;;;;;;;55.25;31.13;;;;;;;9.19;100.00;98746.34;5067672;28;20740;-61
2021/11/17 07:23:57;;;;;;;60.22;31.75;;;;;;;9.15;100.00;98745.78;5067549;28;20032;-61
2021/11/17 07:26:22;;;;;;;57.20;31.88;;;;;;;9.18;100.00;98742.09;5061646;28;20585;-61
2021/11/17 07:28:48;;;;;;;55.70;30.83;;;;;;;9.31;100.00;98752.22;5067600;28;20028;-60
2021/11/17 07:31:13;;;;;;;57.90;31.92;;;;;;;9.35;99.83;98753.63;5071658;28;20032;-61
2021/11/17 07:33:39;;;;;;;53.08;30.92;;;;;;;9.31;100.00;98753.06;5070646;28;20560;-60
2021/11/17 07:36:05;;;;;;;56.17;31.17;;;;;;;9.11;100.00;98722.81;5058102;28;20032;-61
2021/11/17 07:38:31;;;;;;;59.22;32.03;;;;;;;9.09;100.00;98715.19;5071927;28;20039;-61
2021/11/17 07:40:56;;;;;;;64.22;34.75;;;;;;;9.36;100.00;98757.84;5069330;28;20020;-60
2021/11/17 07:43:24;;;;;;;57.55;33.08;;;;;;;9.40;100.00;98752.28;5064919;28;20032;-61
2021/11/17 07:45:49;;;;;;;64.53;34.58;;;;;;;9.36;100.00;98761.28;5074029;28;20027;-60
2021/11/17 07:48:18;;;;;;;58.65;34.05;;;;;;;9.12;100.00;98721.88;5070735;28;20024;-59
2021/11/17 07:50:45;;;;;;;58.67;32.88;;;;;;;9.19;100.00;98735.97;5105563;27;20080;-60
2021/11/17 07:53:12;;;;;;;62.03;32.28;;;;;;;8.94;100.00;98688.78;5063741;28;20050;-61
2021/11/17 07:55:41;;;;;;;62.83;35.35;;;;;;;9.42;100.00;98776.31;5068799;28;20028;-60
2021/11/17 07:58:08;;;;;;;60.60;33.40;;;;;;;9.30;100.00;98746.22;5058576;28;20145;-61
2021/11/17 08:00:35;;;;;;;60.50;33.60;;;;;;;9.46;100.00;98773.47;5065547;28;20028;-60
2021/11/17 08:03:01;;;;;;;59.50;33.05;;;;;;;9.50;100.00;98783.44;5061945;28;20032;-60
2021/11/17 08:05:26;;;;;;;60.42;32.22;;;;;;;9.57;99.99;98784.53;5059319;28;20416;-60
2021/11/17 08:07:52;;;;;;;57.95;31.63;;;;;;;9.53;100.00;98793.56;5067783;28;20026;-60
2021/11/17 08:10:23;;;;;;;62.42;32.72;;;;;;;9.52;100.00;98797.09;5067775;28;20039;-60
2021/11/17 08:12:49;;;;;;;57.80;32.65;;;;;;;9.34;99.66;98757.97;5067637;28;20020;-60
2021/11/17 08:15:14;;;;;;;69.90;34.17;;;;;;;9.55;99.68;98803.81;5066212;28;20103;-60
2021/11/17 08:17:40;;;;;;;68.70;34.13;;;;;;;9.47;99.63;98791.47;5069761;28;20031;-61
2021/11/17 08:20:10;;;;;;;88.07;35.78;;;;;;;9.48;100.00;98792.31;5073674;28;20038;-61
2021/11/17 08:22:35;;;;;;;118.43;41.70;;;;;;;9.52;100.00;98802.28;5067573;28;20024;-61
2021/11/17 08:25:02;;;;;;;71.65;34.58;;;;;;;9.60;99.63;98805.03;5072581;28;20028;-60
2021/11/17 08:27:27;;;;;;;64.20;33.47;;;;;;;9.58;99.78;98803.53;5063661;28;20035;-62
2021/11/17 08:29:53;;;;;;;58.80;31.95;;;;;;;9.63;99.79;98806.53;5069087;28;20473;-60
2021/11/17 08:32:20;;;;;;;59.92;31.70;;;;;;;9.57;99.25;98794.09;5069831;28;20028;-60
2021/11/17 08:34:45;;;;;;;60.03;31.80;;;;;;;9.48;100.00;98802.69;5061933;28;20028;-60
2021/11/17 08:37:11;;;;;;;64.65;32.92;;;;;;;9.54;100.00;98794.38;5056690;28;20016;-60
2021/11/17 08:39:37;;;;;;;58.90;32.03;;;;;;;9.42;100.00;98785.88;5064169;28;20028;-60
2021/11/17 08:42:02;;;;;;;64.30;32.30;;;;;;;9.16;100.00;98742.25;5068233;28;20031;-60
2021/11/17 08:44:28;;;;;;;57.40;31.65;;;;;;;9.56;100.00;98802.84;5099936;27;20040;-60
2021/11/17 08:46:54;;;;;;;56.28;31.10;;;;;;;9.57;100.00;98804.50;5066646;28;20036;-60
2021/11/17 08:49:20;;;;;;;57.80;31.38;;;;;;;9.50;100.00;98801.59;5060558;28;20692;-61
2021/11/17 08:51:47;;;;;;;64.82;33.17;;;;;;;9.64;100.00;98808.19;5072322;28;20024;-60
2021/11/17 08:54:13;;;;;;;59.95;30.58;;;;;;;9.68;100.00;98812.16;5064296;28;20028;-61
2021/11/17 08:56:38;;;;;;;62.28;32.70;;;;;;;9.66;99.94;98821.88;5071867;28;20593;-60
2021/11/17 08:59:05;;;;;;;59.60;32.03;;;;;;;9.65;99.93;98812.41;5064732;28;20084;-60
2021/11/17 09:01:35;;;;;;;87.13;33.53;;;;;;;9.71;100.00;98824.88;5094808;28;20020;-60
2021/11/17 09:04:06;;;;;;;89.03;35.50;;;;;;;9.76;100.00;98825.28;5066884;28;20519;-61
2021/11/17 09:06:32;;;;;;;62.60;31.52;;;;;;;9.72;100.00;98823.91;5064047;28;20023;-61
2021/11/17 09:09:02;;;;;;;58.13;31.55;;;;;;;9.44;99.58;98776.19;5072786;28;20544;-61
2021/11/17 09:11:27;;;;;;;57.55;31.13;;;;;;;9.75;100.00;98826.25;5065565;28;20111;-60
2021/11/17 09:13:53;;;;;;;54.33;29.63;;;;;;;9.76;100.00;98830.47;5109611;27;20034;-62
2021/11/17 09:16:18;;;;;;;61.75;31.60;;;;;;;9.72;100.00;98817.91;5070090;28;20031;-60
2021/11/17 09:18:43;;;;;;;59.15;31.55;;;;;;;9.76;100.00;98829.66;5067664;28;20044;-60
2021/11/17 09:21:15;;;;;;;58.50;32.05;;;;;;;9.83;100.00;98835.97;5075454;28;20024;-60
2021/11/17 09:23:42;;;;;;;51.63;29.23;;;;;;;9.85;99.49;98830.63;5065604;28;20028;-60
2021/11/17 09:26:08;;;;;;;55.85;31.40;;;;;;;9.87;99.00;98826.94;5052904;28;20111;-61
2021/11/17 09:28:34;;;;;;;57.45;31.15;;;;;;;9.89;99.14;98821.63;5059158;28;20046;-60
2021/11/17 09:31:00;;;;;;;54.03;31.67;;;;;;;9.66;98.90;98782.91;5073937;28;20028;-60
2021/11/17 09:33:27;;;;;;;57.90;32.13;;;;;;;9.96;99.93;98833.09;5066493;28;20028;-60
2021/11/17 09:35:53;;;;;;;61.00;31.35;;;;;;;9.94;100.00;98824.63;5059044;28;20391;-60
2021/11/17 09:38:18;;;;;;;58.60;31.88;;;;;;;9.75;99.23;98789.91;5068575;28;20024;-60
2021/11/17 09:40:59;;;;;;;54.70;29.98;;;;;;;10.06;98.31;98828.75;5073129;28;21342;-60
2021/11/17 09:43:47;;;;;;;55.20;29.65;;;;;;;10.12;99.01;98825.59;5080121;28;20036;-60
2021/11/17 09:46:19;;;;;;;57.45;30.38;;;;;;;10.11;99.29;98842.16;5076158;28;20044;-61
2021/11/17 09:48:50;;;;;;;53.60;29.85;;;;;;;10.15;99.23;98843.53;5068117;28;20024;-60
2021/11/17 09:51:23;;;;;;;64.03;31.77;;;;;;;10.16;99.12;98845.16;5102788;27;20513;-60
2021/11/17 09:54:00;;;;;;;58.22;31.13;;;;;;;10.03;97.65;98810.00;5066219;28;20016;-60
2021/11/17 09:56:30;;;;;;;52.70;30.65;;;;;;;10.19;97.00;98847.47;5075299;28;20127;-61
2021/11/17 09:59:06;;;;;;;55.55;31.08;;;;;;;9.95;96.45;98810.69;5080759;28;20106;-60
2021/11/17 10:01:42;;;;;;;52.33;29.70;;;;;;;10.08;97.29;98847.63;5075264;28;20467;-60
2021/11/17 10:04:17;;;;;;;55.28;30.98;;;;;;;10.05;97.00;98845.28;5070731;28;20747;-60
2021/11/17 10:15:20;;;;;;;52.47;30.10;;;;;;;9.71;98.17;98800.66;5070450;28;20848;-60
2021/11/17 10:17:55;;;;;;;57.28;32.05;;;;;;;9.82;97.91;98821.34;5065108;28;20032;-60
2021/11/17 10:20:32;;;;;;;54.90;32.60;;;;;;;10.07;98.20;98845.97;5079400;28;20020;-60
2021/11/17 10:23:07;;;;;;;55.30;30.88;;;;;;;10.13;98.67;98848.03;5068173;28;20029;-60
2021/11/17 10:25:53;;;;;;;53.33;31.13;;;;;;;10.18;98.93;98845.84;5075599;28;20040;-59
2021/11/17 10:28:32;;;;;;;54.88;32.33;;;;;;;10.21;98.04;98855.16;5072857;28;20035;-59
2021/11/17 10:31:04;;;;;;;54.65;31.88;;;;;;;10.31;97.73;98856.00;5074159;28;20530;-61
2021/11/17 10:34:03;;;;;;;58.92;33.30;;;;;;;10.29;98.48;98836.25;5071404;28;20424;-61
2021/11/17 10:36:35;;;;;;;57.97;32.92;;;;;;;10.37;98.68;98868.44;5076185;28;20030;-61
2021/11/17 10:39:12;;;;;;;53.97;31.25;;;;;;;10.33;97.27;98859.28;5072491;28;20062;-60
2021/11/17 10:42:00;;;;;;;54.20;30.95;;;;;;;10.30;96.56;98843.13;5063378;28;20035;-60
2021/11/17 10:44:39;;;;;;;52.53;31.25;;;;;;;10.31;97.18;98857.75;5070183;28;20326;-60
2021/11/17 10:47:24;;;;;;;54.08;31.38;;;;;;;10.37;97.08;98850.25;5075966;28;20023;-60
2021/11/17 10:49:53;;;;;;;56.10;29.63;;;;;;;10.37;97.91;98852.03;5077723;28;20036;-60
2021/11/17 10:52:54;;;;;;;52.40;30.48;;;;;;;10.11;97.93;98826.56;5072837;28;20021;-61
2021/11/17 10:55:27;;;;;;;49.22;29.90;;;;;;;10.24;96.73;98849.69;5062461;28;20048;-60
2021/11/17 10:57:52;;;;;;;47.25;28.42;;;;;;;9.96;97.07;98812.31;5063009;28;20028;-60
2021/11/17 11:00:22;;;;;;;50.00;29.13;;;;;;;10.15;96.50;98833.13;5066607;28;20016;-60
2021/11/17 11:02:47;;;;;;;;;;;;;;;10.18;96.50;98832.88;5074165;28;20048;-60
2021/11/17 11:05:17;;;;;;;52.33;28.47;;;;;;;10.25;96.66;98825.31;5088945;28;19912;-61
2021/11/17 11:08:01;;;;;;;51.00;30.33;;;;;;;10.24;96.50;98812.47;5067785;28;20282;-60
2021/11/17 11:10:43;;;;;;;47.55;28.75;;;;;;;10.22;95.16;98812.59;5073346;28;20097;-61
2021/11/17 11:13:18;;;;;;;47.72;28.33;;;;;;;10.28;95.81;98812.06;5061246;28;20034;-60
2021/11/17 11:15:49;;;;;;;47.97;28.45;;;;;;;10.39;95.29;98808.53;5064042;28;20047;-61
2021/11/17 11:18:16;;;;;;;47.10;28.52;;;;;;;10.46;94.98;98808.78;5068131;28;20062;-61
2021/11/17 11:20:45;;;;;;;45.63;28.48;;;;;;;10.48;94.98;98805.09;5067714;28;20020;-60
2021/11/17 11:23:18;;;;;;;47.10;28.13;;;;;;;10.53;95.07;98812.47;5070314;28;20099;-61
2021/11/17 11:25:55;;;;;;;49.05;29.40;;;;;;;10.49;96.74;98814.53;5054764;28;20031;-60
2021/11/17 11:28:21;;;;;;;44.95;28.20;;;;;;;10.57;95.24;98804.25;5068805;28;20099;-60
2021/11/17 11:30:48;;;;;;;46.33;28.55;;;;;;;10.53;94.55;98808.09;5073165;28;20127;-59
2021/11/17 11:33:21;;;;;;;49.63;30.15;;;;;;;10.34;95.50;98772.53;5070134;28;20036;-61
2021/11/17 11:36:11;;;;;;;49.15;28.60;;;;;;;10.53;96.15;98810.72;5067364;28;20143;-61
2021/11/17 11:38:52;;;;;;;45.45;28.73;;;;;;;10.53;95.26;98810.72;5068791;28;20066;-61
2021/11/17 11:41:40;;;;;;;47.47;27.98;;;;;;;10.57;96.02;98809.47;5058190;28;20032;-60
2021/11/17 11:44:20;;;;;;;46.20;28.85;;;;;;;10.37;96.42;98769.69;5071014;28;20135;-60
2021/11/17 11:46:56;;;;;;;42.67;26.65;;;;;;;10.64;96.62;98811.50;5069919;28;20469;-60
2021/11/17 11:49:35;;;;;;;41.88;26.52;;;;;;;10.67;95.73;98803.41;5068847;28;20139;-61
2021/11/17 11:52:19;;;;;;;43.55;26.67;;;;;;;10.67;97.04;98806.81;5079155;28;20033;-61
2021/11/17 11:54:53;;;;;;;45.40;25.98;;;;;;;10.74;97.16;98810.50;5072582;28;20115;-60
2021/11/17 11:57:36;;;;;;;40.45;24.98;;;;;;;10.69;96.59;98796.28;5071545;28;20383;-60
2021/11/17 12:00:25;;;;;;;36.20;23.48;;;;;;;10.79;95.68;98812.69;5063877;28;20046;-61
2021/11/17 12:02:53;;;;;;;35.97;22.67;;;;;;;10.85;95.32;98811.31;5064880;28;20035;-61
2021/11/17 12:05:38;;;;;;;33.63;21.95;;;;;;;10.82;94.58;98790.78;5062272;28;20111;-61
2021/11/17 12:08:12;;;;;;;29.13;19.52;;;;;;;10.94;93.32;98813.06;5065547;28;20606;-61
2021/11/17 12:10:41;;;;;;;31.85;19.67;;;;;;;10.90;92.66;98804.72;5065266;28;20489;-61
2021/11/17 12:13:20;;;;;;;27.95;19.13;;;;;;;10.89;92.27;98803.06;5069890;28;20024;-60
2021/11/17 12:16:01;;;;;;;32.50;20.27;;;;;;;10.67;92.42;98761.81;5069616;28;20028;-61
2021/11/17 12:18:27;;;;;;;31.00;20.67;;;;;;;11.02;91.91;98804.53;5067336;28;20038;-61
2021/11/17 12:20:59;;;;;;;31.75;20.70;;;;;;;11.03;93.15;98804.41;5062407;28;20036;-60
2021/11/17 12:23:28;;;;;;;33.20;21.20;;;;;;;10.73;92.02;98749.06;5074187;28;20105;-61
2021/11/17 12:26:15;;;;;;;30.10;20.80;;;;;;;11.10;92.61;98794.25;5070854;28;20032;-60
2021/11/17 12:28:45;;;;;;;31.80;21.10;;;;;;;11.12;93.64;98784.50;5064963;28;20040;-61
2021/11/17 12:31:20;;;;;;;29.50;19.83;;;;;;;11.13;92.57;98788.75;5056636;28;20036;-61
2021/11/17 12:33:52;;;;;;;30.10;19.55;;;;;;;11.14;91.41;98791.19;5058078;28;20028;-60
2021/11/17 12:36:34;;;;;;;27.80;19.20;;;;;;;11.16;90.54;98801.47;5082012;28;20043;-61
2021/11/17 12:39:13;;;;;;;28.88;19.70;;;;;;;11.06;91.67;98793.72;5064697;28;20024;-60
2021/11/17 12:41:39;;;;;;;29.88;19.73;;;;;;;11.04;91.88;98789.59;5069697;28;20228;-60
2021/11/17 12:44:11;;;;;;;32.33;19.65;;;;;;;10.99;92.23;98787.44;5047877;28;20055;-61
2021/11/17 12:46:42;;;;;;;29.50;19.65;;;;;;;11.08;92.76;98796.16;5061860;28;20372;-60
2021/11/17 12:49:18;;;;;;;29.23;19.27;;;;;;;11.01;91.98;98785.50;5062718;28;20036;-63
2021/11/17 12:52:24;;;;;;;25.38;17.45;;;;;;;10.99;90.33;98776.19;5062991;28;20507;-63
2021/11/17 12:55:05;;;;;;;27.75;18.40;;;;;;;11.07;92.24;98777.13;5012141;28;20057;-62
2021/11/17 12:57:44;;;;;;;27.10;17.65;;;;;;;10.83;91.25;98724.81;5072898;28;20669;-62
2021/11/17 13:00:13;;;;;;;24.65;16.90;;;;;;;11.13;91.29;98760.94;5056642;28;20105;-62
2021/11/17 13:02:49;;;;;;;25.55;17.52;;;;;;;11.16;91.69;98770.25;5059982;28;21970;-63
2021/11/17 13:05:22;;;;;;;23.08;14.88;;;;;;;10.80;90.20;98723.28;5062629;28;20047;-62
2021/11/17 13:07:53;;;;;;;23.20;15.63;;;;;;;11.03;89.47;98773.19;5059661;28;20020;-63
2021/11/17 13:10:26;;;;;;;23.08;15.50;;;;;;;10.78;90.14;98741.63;5055150;28;20024;-63
2021/11/17 13:13:11;;;;;;;25.42;17.15;;;;;;;11.02;90.29;98783.72;5105128;27;20068;-61
2021/11/17 13:15:48;;;;;;;24.23;16.98;;;;;;;11.02;90.67;98781.13;5075613;28;20028;-61
2021/11/17 13:18:26;;;;;;;24.92;16.15;;;;;;;10.74;90.77;98734.28;5071426;28;20061;-61
2021/11/17 13:21:15;;;;;;;23.75;15.90;;;;;;;11.09;90.62;98770.00;5070860;28;20020;-61
2021/11/17 13:24:05;;;;;;;25.57;17.33;;;;;;;11.04;91.56;98767.00;5081262;28;20032;-61
2021/11/17 13:26:33;;;;;;;23.85;15.65;;;;;;;10.99;91.34;98760.59;5066268;28;20113;-61
2021/11/17 13:29:21;;;;;;;24.88;15.57;;;;;;;11.06;90.72;98769.47;5071804;28;20084;-62
2021/11/17 13:31:48;;;;;;;22.10;15.52;;;;;;;10.95;91.59;98737.47;5076405;28;20038;-61
2021/11/17 13:34:36;;;;;;;23.83;16.73;;;;;;;11.12;92.19;98764.50;5057096;28;20035;-61
2021/11/17 13:37:36;;;;;;;28.88;17.35;;;;;;;11.10;91.90;98763.03;5054254;28;20137;-61
2021/11/17 13:40:09;;;;;;;29.55;18.85;;;;;;;11.11;92.36;98743.81;5081414;27;20075;-61
2021/11/17 13:42:35;;;;;;;26.90;17.67;;;;;;;10.91;92.56;98709.28;5060480;28;20024;-61
2021/11/17 13:45:14;;;;;;;28.25;18.90;;;;;;;11.15;92.60;98743.41;5060809;28;20024;-61
2021/11/17 13:47:40;;;;;;;22.13;15.50;;;;;;;10.88;90.33;98686.16;5098430;27;20617;-61
2021/11/17 13:50:09;;;;;;;22.17;14.88;;;;;;;11.18;90.93;98733.66;5069126;28;20036;-61
2021/11/17 13:52:37;;;;;;;23.20;15.40;;;;;;;11.12;90.72;98733.28;5061178;28;20027;-61
2021/11/17 13:55:06;;;;;;;23.63;15.60;;;;;;;11.12;90.56;98727.25;5061342;28;20518;-61
2021/11/17 13:57:32;;;;;;;24.77;16.50;;;;;;;11.07;91.81;98727.69;5065386;28;20111;-61
2021/11/17 13:59:57;;;;;;;23.45;16.23;;;;;;;11.15;92.01;98734.75;5053733;28;20501;-61
2021/11/17 14:02:23;;;;;;;23.00;15.95;;;;;;;11.14;90.82;98736.56;5058593;28;20076;-62
2021/11/17 14:04:48;;;;;;;24.50;16.63;;;;;;;11.18;90.52;98731.88;5065816;28;20031;-61
2021/11/17 14:07:16;;;;;;;28.33;19.08;;;;;;;11.14;91.68;98738.34;5066062;28;20035;-61
2021/11/17 14:09:43;;;;;;;26.90;17.42;;;;;;;11.13;91.47;98732.31;5069290;28;20024;-61
2021/11/17 14:12:08;;;;;;;26.20;17.88;;;;;;;11.16;91.91;98732.00;5069681;28;20463;-61
2021/11/17 14:14:34;;;;;;;29.23;19.02;;;;;;;11.20;92.58;98726.53;5063109;28;20050;-61
2021/11/17 14:17:00;;;;;;;27.60;18.73;;;;;;;11.14;92.93;98714.91;5067249;28;20020;-61
2021/11/17 14:19:25;;;;;;;28.10;19.52;;;;;;;11.23;93.21;98729.66;5065884;28;20039;-62
2021/11/17 14:21:51;;;;;;;27.67;19.85;;;;;;;11.20;93.04;98726.53;5067779;28;20111;-61
2021/11/17 14:24:17;;;;;;;26.45;18.15;;;;;;;11.25;93.11;98730.34;5070489;28;20027;-61
2021/11/17 14:26:44;;;;;;;26.95;18.88;;;;;;;11.27;94.01;98736.22;5067657;28;20108;-61
2021/11/17 14:29:17;;;;;;;29.13;18.10;;;;;;;11.31;95.02;98741.94;5070336;28;20040;-61